Погода Коншасна 2 недели

Сан-Паулу, Бразилия

20 июля-01 августа
  • 20июля
    Сегодня
    +9°
    +27°
    Ясно и безоблачно
    ВремяПогодаТемператураВлажностьДавлениеВетер, м/сВероятность осадков
    00:00Ясно и безоблачно+15°C75 %724 мм2.7 м/с5 %
    03:00Ясно и безоблачно+12°C84 %723 мм2.3 м/с5 %
    06:00Ясно и безоблачно+9°C90 %722 мм2.0 м/с5 %
    09:00Ясно и безоблачно+15°C67 %725 мм1.9 м/с5 %
    12:00Ясно и безоблачно+23°C26 %725 мм2.4 м/с5 %
    15:00Ясно и безоблачно+26°C21 %723 мм2.0 м/с5 %
    18:00Ясно и безоблачно+21°C46 %722 мм2.6 м/с5 %
    21:00Ясно и безоблачно+17°C83 %723 мм4.5 м/с5 %
  • 21июля
    Воскресенье
    +12°
    +27°
    Ясно и безоблачно
    ВремяПогодаТемператураВлажностьДавлениеВетер, м/сВероятность осадков
    00:00Ясно и безоблачно+14°C93 %723 мм3.3 м/с5 %
    03:00Ясно и безоблачно+12°C94 %722 мм1.8 м/с5 %
    06:00Ясно и безоблачно+10°C95 %722 мм1.8 м/с5 %
    09:00Ясно и безоблачно+14°C80 %724 мм2.0 м/с5 %
    12:00Ясно и безоблачно+22°C56 %724 мм1.1 м/с5 %
    15:00Ясно и безоблачно+27°C45 %722 мм0.8 м/с5 %
    18:00Ясно и безоблачно+23°C63 %721 мм2.4 м/с5 %
    21:00Ясно и безоблачно+18°C77 %722 мм2.2 м/с5 %
  • 22июля
    Понедельник
    +12°
    +28°
    Ясно и безоблачно
    ВремяПогодаТемператураВлажностьДавлениеВетер, м/сВероятность осадков
    00:00Ясно и безоблачно+16°C93 %723 мм2.1 м/с5 %
    03:00Ясно и безоблачно+13°C100 %722 мм1.7 м/с5 %
    06:00Пасмурно, сплошная облачность+14°C100 %722 мм2.5 м/с5 %
    09:00Облачно с прояснениями+15°C94 %724 мм1.4 м/с5 %
    12:00Ясно и безоблачно+23°C57 %724 мм0.4 м/с5 %
    15:00Ясно и безоблачно+28°C35 %723 мм0.2 м/с5 %
    18:00Ясно и безоблачно+23°C56 %723 мм2.3 м/с5 %
    21:00Ясно и безоблачно+19°C66 %723 мм3.3 м/с5 %
  • 23июля
    Вторник
    +12°
    +28°
    Небольшая облачность
    ВремяПогодаТемператураВлажностьДавлениеВетер, м/сВероятность осадков
    00:00Ясно и безоблачно+17°C91 %724 мм3.1 м/с5 %
    03:00Ясно и безоблачно+14°C94 %723 мм2.0 м/с5 %
    06:00Ясно и безоблачно+12°C93 %723 мм1.8 м/с5 %
    09:00Ясно и безоблачно+16°C68 %725 мм1.4 м/с5 %
    12:00Ясно и безоблачно+24°C48 %725 мм1.1 м/с5 %
    15:00Небольшая облачность+27°C37 %723 мм0.7 м/с5 %
    18:00Ясно и безоблачно+23°C54 %723 мм2.1 м/с5 %
    21:00Практически безоблачно+19°C76 %723 мм4.4 м/с5 %
Мы используем cookies
Соглашаюсь